sensor_id;sensor_type;location;lat;lon;timestamp;P1;durP1;ratioP1;P2;durP2;ratioP2
6955;SDS011;50345;51.136;16.886;2023-06-14T00:00:20;5.90;;;5.37;;
6955;SDS011;50345;51.136;16.886;2023-06-14T00:02:45;5.77;;;5.30;;
6955;SDS011;50345;51.136;16.886;2023-06-14T00:05:11;7.50;;;5.10;;
6955;SDS011;50345;51.136;16.886;2023-06-14T00:07:38;5.47;;;4.97;;
6955;SDS011;50345;51.136;16.886;2023-06-14T00:10:08;6.35;;;5.80;;
6955;SDS011;50345;51.136;16.886;2023-06-14T00:12:37;6.40;;;4.70;;
6955;SDS011;50345;51.136;16.886;2023-06-14T00:15:04;5.68;;;5.15;;
6955;SDS011;50345;51.136;16.886;2023-06-14T00:17:30;4.70;;;4.30;;
6955;SDS011;50345;51.136;16.886;2023-06-14T00:19:56;5.37;;;4.97;;
6955;SDS011;50345;51.136;16.886;2023-06-14T00:22:23;6.60;;;4.32;;
6955;SDS011;50345;51.136;16.886;2023-06-14T00:24:50;4.90;;;4.40;;
6955;SDS011;50345;51.136;16.886;2023-06-14T00:27:18;5.88;;;5.38;;
6955;SDS011;50345;51.136;16.886;2023-06-14T00:29:44;4.80;;;4.43;;
6955;SDS011;50345;51.136;16.886;2023-06-14T00:32:10;5.13;;;4.63;;
6955;SDS011;50345;51.136;16.886;2023-06-14T00:34:36;8.63;;;5.90;;
6955;SDS011;50345;51.136;16.886;2023-06-14T00:37:02;5.20;;;4.82;;
6955;SDS011;50345;51.136;16.886;2023-06-14T00:39:28;7.40;;;4.82;;
6955;SDS011;50345;51.136;16.886;2023-06-14T00:41:54;6.55;;;5.90;;
6955;SDS011;50345;51.136;16.886;2023-06-14T00:44:20;5.15;;;4.75;;
6955;SDS011;50345;51.136;16.886;2023-06-14T00:46:46;5.35;;;4.63;;
6955;SDS011;50345;51.136;16.886;2023-06-14T00:49:16;4.90;;;4.50;;
6955;SDS011;50345;51.136;16.886;2023-06-14T00:51:43;4.32;;;3.92;;
6955;SDS011;50345;51.136;16.886;2023-06-14T00:54:09;5.45;;;5.05;;
6955;SDS011;50345;51.136;16.886;2023-06-14T00:56:36;4.85;;;4.40;;
6955;SDS011;50345;51.136;16.886;2023-06-14T00:59:03;4.70;;;4.30;;
6955;SDS011;50345;51.136;16.886;2023-06-14T01:01:30;7.47;;;5.18;;
6955;SDS011;50345;51.136;16.886;2023-06-14T01:03:59;5.00;;;4.60;;
6955;SDS011;50345;51.136;16.886;2023-06-14T01:11:26;4.63;;;4.30;;
6955;SDS011;50345;51.136;16.886;2023-06-14T01:13:54;5.68;;;5.18;;
6955;SDS011;50345;51.136;16.886;2023-06-14T01:16:22;4.82;;;4.40;;
6955;SDS011;50345;51.136;16.886;2023-06-14T01:18:48;5.70;;;5.20;;
6955;SDS011;50345;51.136;16.886;2023-06-14T01:21:21;4.70;;;4.30;;
6955;SDS011;50345;51.136;16.886;2023-06-14T01:23:47;5.40;;;5.00;;
6955;SDS011;50345;51.136;16.886;2023-06-14T01:26:18;5.03;;;4.63;;
6955;SDS011;50345;51.136;16.886;2023-06-14T01:28:44;6.15;;;5.45;;
6955;SDS011;50345;51.136;16.886;2023-06-14T01:31:13;6.85;;;5.05;;
6955;SDS011;50345;51.136;16.886;2023-06-14T01:33:41;6.10;;;5.50;;
6955;SDS011;50345;51.136;16.886;2023-06-14T01:36:07;5.50;;;4.68;;
6955;SDS011;50345;51.136;16.886;2023-06-14T01:38:34;4.93;;;4.53;;
6955;SDS011;50345;51.136;16.886;2023-06-14T01:41:00;5.05;;;4.65;;
6955;SDS011;50345;51.136;16.886;2023-06-14T01:43:27;6.75;;;5.00;;
6955;SDS011;50345;51.136;16.886;2023-06-14T01:45:55;4.80;;;4.40;;
6955;SDS011;50345;51.136;16.886;2023-06-14T01:48:23;6.13;;;4.53;;
6955;SDS011;50345;51.136;16.886;2023-06-14T01:50:49;4.32;;;4.00;;
6955;SDS011;50345;51.136;16.886;2023-06-14T01:53:15;5.10;;;4.70;;
6955;SDS011;50345;51.136;16.886;2023-06-14T01:55:41;5.25;;;4.75;;
6955;SDS011;50345;51.136;16.886;2023-06-14T01:58:08;7.15;;;4.88;;
6955;SDS011;50345;51.136;16.886;2023-06-14T02:00:34;4.78;;;4.38;;
6955;SDS011;50345;51.136;16.886;2023-06-14T02:03:00;5.63;;;4.53;;
6955;SDS011;50345;51.136;16.886;2023-06-14T02:05:27;7.65;;;4.70;;
6955;SDS011;50345;51.136;16.886;2023-06-14T02:07:53;4.55;;;4.15;;
6955;SDS011;50345;51.136;16.886;2023-06-14T02:10:19;5.88;;;4.45;;
6955;SDS011;50345;51.136;16.886;2023-06-14T02:12:45;4.85;;;4.43;;
6955;SDS011;50345;51.136;16.886;2023-06-14T02:15:11;5.25;;;4.65;;
6955;SDS011;50345;51.136;16.886;2023-06-14T02:17:44;5.03;;;4.68;;
6955;SDS011;50345;51.136;16.886;2023-06-14T02:20:12;4.50;;;4.20;;
6955;SDS011;50345;51.136;16.886;2023-06-14T02:22:38;5.87;;;5.10;;
6955;SDS011;50345;51.136;16.886;2023-06-14T02:25:04;10.82;;;4.60;;
6955;SDS011;50345;51.136;16.886;2023-06-14T02:27:30;4.43;;;4.13;;
6955;SDS011;50345;51.136;16.886;2023-06-14T02:29:56;4.63;;;4.32;;
6955;SDS011;50345;51.136;16.886;2023-06-14T02:32:22;5.15;;;4.68;;
6955;SDS011;50345;51.136;16.886;2023-06-14T02:34:48;5.25;;;4.38;;
6955;SDS011;50345;51.136;16.886;2023-06-14T02:37:15;10.07;;;4.80;;
6955;SDS011;50345;51.136;16.886;2023-06-14T02:39:41;5.75;;;5.20;;
6955;SDS011;50345;51.136;16.886;2023-06-14T02:42:07;5.47;;;4.97;;
6955;SDS011;50345;51.136;16.886;2023-06-14T02:44:33;4.68;;;4.28;;
6955;SDS011;50345;51.136;16.886;2023-06-14T02:47:00;4.63;;;4.22;;
6955;SDS011;50345;51.136;16.886;2023-06-14T02:49:26;6.50;;;5.60;;
6955;SDS011;50345;51.136;16.886;2023-06-14T02:51:52;5.18;;;4.22;;
6955;SDS011;50345;51.136;16.886;2023-06-14T02:54:18;4.25;;;3.95;;
6955;SDS011;50345;51.136;16.886;2023-06-14T02:56:44;4.97;;;4.47;;
6955;SDS011;50345;51.136;16.886;2023-06-14T02:59:10;5.32;;;4.88;;
6955;SDS011;50345;51.136;16.886;2023-06-14T03:01:38;6.10;;;3.95;;
6955;SDS011;50345;51.136;16.886;2023-06-14T03:04:06;4.72;;;4.43;;
6955;SDS011;50345;51.136;16.886;2023-06-14T03:06:32;4.55;;;4.13;;
6955;SDS011;50345;51.136;16.886;2023-06-14T03:08:58;5.60;;;5.10;;
6955;SDS011;50345;51.136;16.886;2023-06-14T03:11:26;4.47;;;4.07;;
6955;SDS011;50345;51.136;16.886;2023-06-14T03:13:52;6.10;;;5.50;;
6955;SDS011;50345;51.136;16.886;2023-06-14T03:16:18;5.00;;;4.63;;
6955;SDS011;50345;51.136;16.886;2023-06-14T03:18:48;5.57;;;4.30;;
6955;SDS011;50345;51.136;16.886;2023-06-14T03:21:14;5.70;;;4.88;;
6955;SDS011;50345;51.136;16.886;2023-06-14T03:23:41;5.63;;;5.00;;
6955;SDS011;50345;51.136;16.886;2023-06-14T03:26:07;5.63;;;5.13;;
6955;SDS011;50345;51.136;16.886;2023-06-14T03:28:33;5.30;;;4.70;;
6955;SDS011;50345;51.136;16.886;2023-06-14T03:30:59;5.68;;;5.18;;
6955;SDS011;50345;51.136;16.886;2023-06-14T03:33:26;6.22;;;5.00;;
6955;SDS011;50345;51.136;16.886;2023-06-14T03:35:52;5.20;;;4.80;;
6955;SDS011;50345;51.136;16.886;2023-06-14T03:38:18;7.65;;;5.75;;
6955;SDS011;50345;51.136;16.886;2023-06-14T03:40:44;6.57;;;5.93;;
6955;SDS011;50345;51.136;16.886;2023-06-14T03:43:11;5.80;;;5.28;;
6955;SDS011;50345;51.136;16.886;2023-06-14T03:45:37;6.15;;;5.65;;
6955;SDS011;50345;51.136;16.886;2023-06-14T03:48:03;7.18;;;6.50;;
6955;SDS011;50345;51.136;16.886;2023-06-14T03:50:31;7.28;;;6.07;;
6955;SDS011;50345;51.136;16.886;2023-06-14T03:52:57;7.25;;;6.55;;
6955;SDS011;50345;51.136;16.886;2023-06-14T03:55:23;6.40;;;5.90;;
6955;SDS011;50345;51.136;16.886;2023-06-14T03:57:52;6.80;;;5.93;;
6955;SDS011;50345;51.136;16.886;2023-06-14T04:00:18;7.70;;;5.60;;
6955;SDS011;50345;51.136;16.886;2023-06-14T04:02:44;6.03;;;5.43;;
6955;SDS011;50345;51.136;16.886;2023-06-14T04:05:10;6.35;;;5.80;;
6955;SDS011;50345;51.136;16.886;2023-06-14T04:07:36;6.13;;;5.63;;
6955;SDS011;50345;51.136;16.886;2023-06-14T04:10:08;5.85;;;5.25;;
6955;SDS011;50345;51.136;16.886;2023-06-14T04:12:34;6.15;;;5.65;;
6955;SDS011;50345;51.136;16.886;2023-06-14T04:15:00;6.38;;;5.78;;
6955;SDS011;50345;51.136;16.886;2023-06-14T04:17:26;5.70;;;5.30;;
6955;SDS011;50345;51.136;16.886;2023-06-14T04:19:52;5.57;;;5.07;;
6955;SDS011;50345;51.136;16.886;2023-06-14T04:22:18;5.30;;;4.80;;
6955;SDS011;50345;51.136;16.886;2023-06-14T04:24:44;5.20;;;4.72;;
6955;SDS011;50345;51.136;16.886;2023-06-14T04:27:11;5.75;;;5.30;;
6955;SDS011;50345;51.136;16.886;2023-06-14T04:29:38;6.05;;;5.57;;
6955;SDS011;50345;51.136;16.886;2023-06-14T04:32:04;6.32;;;5.78;;
6955;SDS011;50345;51.136;16.886;2023-06-14T04:34:31;6.97;;;6.38;;
6955;SDS011;50345;51.136;16.886;2023-06-14T04:36:59;6.45;;;5.85;;
6955;SDS011;50345;51.136;16.886;2023-06-14T04:39:26;7.38;;;6.03;;
6955;SDS011;50345;51.136;16.886;2023-06-14T04:41:52;6.82;;;6.10;;
6955;SDS011;50345;51.136;16.886;2023-06-14T04:44:21;6.78;;;6.13;;
6955;SDS011;50345;51.136;16.886;2023-06-14T04:46:55;6.35;;;5.70;;
6955;SDS011;50345;51.136;16.886;2023-06-14T04:49:23;5.57;;;5.15;;
6955;SDS011;50345;51.136;16.886;2023-06-14T04:51:51;7.10;;;6.50;;
6955;SDS011;50345;51.136;16.886;2023-06-14T04:54:24;7.63;;;6.93;;
6955;SDS011;50345;51.136;16.886;2023-06-14T04:56:50;10.88;;;5.90;;
6955;SDS011;50345;51.136;16.886;2023-06-14T04:59:18;6.50;;;5.90;;
6955;SDS011;50345;51.136;16.886;2023-06-14T05:01:44;5.55;;;5.05;;
6955;SDS011;50345;51.136;16.886;2023-06-14T05:04:16;6.72;;;5.78;;
6955;SDS011;50345;51.136;16.886;2023-06-14T05:06:42;6.45;;;5.55;;
6955;SDS011;50345;51.136;16.886;2023-06-14T05:09:13;7.90;;;7.20;;
6955;SDS011;50345;51.136;16.886;2023-06-14T05:11:40;7.00;;;6.25;;
6955;SDS011;50345;51.136;16.886;2023-06-14T05:14:12;7.05;;;6.45;;
6955;SDS011;50345;51.136;16.886;2023-06-14T05:16:38;6.88;;;6.28;;
6955;SDS011;50345;51.136;16.886;2023-06-14T05:19:05;6.72;;;6.13;;
6955;SDS011;50345;51.136;16.886;2023-06-14T05:21:31;7.22;;;6.55;;
6955;SDS011;50345;51.136;16.886;2023-06-14T05:24:00;7.53;;;6.82;;
6955;SDS011;50345;51.136;16.886;2023-06-14T05:26:26;6.80;;;6.20;;
6955;SDS011;50345;51.136;16.886;2023-06-14T05:28:58;6.07;;;5.53;;
6955;SDS011;50345;51.136;16.886;2023-06-14T05:31:25;6.53;;;5.93;;
6955;SDS011;50345;51.136;16.886;2023-06-14T05:33:52;7.13;;;6.53;;
6955;SDS011;50345;51.136;16.886;2023-06-14T05:36:18;6.78;;;5.85;;
6955;SDS011;50345;51.136;16.886;2023-06-14T05:38:47;8.13;;;7.32;;
6955;SDS011;50345;51.136;16.886;2023-06-14T05:41:13;6.72;;;6.25;;
6955;SDS011;50345;51.136;16.886;2023-06-14T05:43:38;8.73;;;5.90;;
6955;SDS011;50345;51.136;16.886;2023-06-14T05:46:04;6.90;;;6.30;;
6955;SDS011;50345;51.136;16.886;2023-06-14T05:48:30;8.93;;;7.30;;
6955;SDS011;50345;51.136;16.886;2023-06-14T05:50:56;8.70;;;6.97;;
6955;SDS011;50345;51.136;16.886;2023-06-14T05:53:22;6.07;;;5.47;;
6955;SDS011;50345;51.136;16.886;2023-06-14T05:55:47;8.00;;;6.80;;
6955;SDS011;50345;51.136;16.886;2023-06-14T05:58:14;7.55;;;6.85;;
6955;SDS011;50345;51.136;16.886;2023-06-14T06:00:39;8.03;;;7.30;;
6955;SDS011;50345;51.136;16.886;2023-06-14T06:03:05;8.07;;;7.37;;
6955;SDS011;50345;51.136;16.886;2023-06-14T06:05:33;7.82;;;7.10;;
6955;SDS011;50345;51.136;16.886;2023-06-14T06:07:58;10.10;;;9.30;;
6955;SDS011;50345;51.136;16.886;2023-06-14T06:10:25;8.95;;;8.15;;
6955;SDS011;50345;51.136;16.886;2023-06-14T06:12:51;9.07;;;8.37;;
6955;SDS011;50345;51.136;16.886;2023-06-14T06:15:17;8.65;;;7.85;;
6955;SDS011;50345;51.136;16.886;2023-06-14T06:17:43;9.00;;;8.10;;
6955;SDS011;50345;51.136;16.886;2023-06-14T06:20:09;8.10;;;7.40;;
6955;SDS011;50345;51.136;16.886;2023-06-14T06:22:36;9.25;;;8.35;;
6955;SDS011;50345;51.136;16.886;2023-06-14T06:25:04;9.95;;;8.60;;
6955;SDS011;50345;51.136;16.886;2023-06-14T06:27:31;9.50;;;8.60;;
6955;SDS011;50345;51.136;16.886;2023-06-14T06:29:57;10.18;;;9.18;;
6955;SDS011;50345;51.136;16.886;2023-06-14T06:32:23;9.47;;;8.57;;
6955;SDS011;50345;51.136;16.886;2023-06-14T06:34:48;9.10;;;8.27;;
6955;SDS011;50345;51.136;16.886;2023-06-14T06:37:15;9.63;;;8.43;;
6955;SDS011;50345;51.136;16.886;2023-06-14T06:39:40;9.73;;;8.87;;
6955;SDS011;50345;51.136;16.886;2023-06-14T06:42:06;8.90;;;8.00;;
6955;SDS011;50345;51.136;16.886;2023-06-14T06:44:32;9.80;;;9.00;;
6955;SDS011;50345;51.136;16.886;2023-06-14T06:46:58;9.77;;;8.87;;
6955;SDS011;50345;51.136;16.886;2023-06-14T06:49:24;11.77;;;10.73;;
6955;SDS011;50345;51.136;16.886;2023-06-14T06:52:00;12.30;;;10.93;;
6955;SDS011;50345;51.136;16.886;2023-06-14T06:54:30;10.17;;;9.20;;
6955;SDS011;50345;51.136;16.886;2023-06-14T06:56:56;13.37;;;9.60;;
6955;SDS011;50345;51.136;16.886;2023-06-14T06:59:22;11.37;;;9.13;;
6955;SDS011;50345;51.136;16.886;2023-06-14T07:01:48;11.50;;;10.43;;
6955;SDS011;50345;51.136;16.886;2023-06-14T07:04:14;12.03;;;10.77;;
6955;SDS011;50345;51.136;16.886;2023-06-14T07:06:41;9.83;;;9.03;;
6955;SDS011;50345;51.136;16.886;2023-06-14T07:09:08;13.83;;;12.47;;
6955;SDS011;50345;51.136;16.886;2023-06-14T07:11:41;11.47;;;10.43;;
6955;SDS011;50345;51.136;16.886;2023-06-14T07:14:08;10.47;;;9.57;;
6955;SDS011;50345;51.136;16.886;2023-06-14T07:16:33;11.10;;;10.17;;
6955;SDS011;50345;51.136;16.886;2023-06-14T07:18:59;11.07;;;9.80;;
6955;SDS011;50345;51.136;16.886;2023-06-14T07:21:25;9.60;;;8.80;;
6955;SDS011;50345;51.136;16.886;2023-06-14T07:23:52;11.27;;;10.37;;
6955;SDS011;50345;51.136;16.886;2023-06-14T07:26:18;11.97;;;10.87;;
6955;SDS011;50345;51.136;16.886;2023-06-14T07:28:44;11.57;;;10.43;;
6955;SDS011;50345;51.136;16.886;2023-06-14T07:31:11;11.93;;;10.60;;
6955;SDS011;50345;51.136;16.886;2023-06-14T07:33:37;11.43;;;10.43;;
6955;SDS011;50345;51.136;16.886;2023-06-14T07:36:03;11.93;;;10.73;;
6955;SDS011;50345;51.136;16.886;2023-06-14T07:38:29;13.47;;;11.03;;
6955;SDS011;50345;51.136;16.886;2023-06-14T07:40:55;12.63;;;11.53;;
6955;SDS011;50345;51.136;16.886;2023-06-14T07:43:20;13.40;;;12.10;;
6955;SDS011;50345;51.136;16.886;2023-06-14T07:45:46;11.93;;;10.90;;
6955;SDS011;50345;51.136;16.886;2023-06-14T07:48:12;13.00;;;10.80;;
6955;SDS011;50345;51.136;16.886;2023-06-14T07:50:38;11.00;;;10.10;;
6955;SDS011;50345;51.136;16.886;2023-06-14T07:53:03;12.07;;;10.97;;
6955;SDS011;50345;51.136;16.886;2023-06-14T07:55:29;11.13;;;10.10;;
6955;SDS011;50345;51.136;16.886;2023-06-14T07:57:57;12.23;;;11.13;;
6955;SDS011;50345;51.136;16.886;2023-06-14T08:00:23;13.57;;;9.73;;
6955;SDS011;50345;51.136;16.886;2023-06-14T08:02:49;9.83;;;9.00;;
6955;SDS011;50345;51.136;16.886;2023-06-14T08:05:17;8.73;;;7.93;;
6955;SDS011;50345;51.136;16.886;2023-06-14T08:07:43;9.77;;;8.83;;
6955;SDS011;50345;51.136;16.886;2023-06-14T08:10:09;9.93;;;9.00;;
6955;SDS011;50345;51.136;16.886;2023-06-14T08:12:36;9.40;;;8.60;;
6955;SDS011;50345;51.136;16.886;2023-06-14T08:15:02;10.70;;;7.70;;
6955;SDS011;50345;51.136;16.886;2023-06-14T08:17:29;9.57;;;8.67;;
6955;SDS011;50345;51.136;16.886;2023-06-14T08:19:56;8.83;;;8.13;;
6955;SDS011;50345;51.136;16.886;2023-06-14T08:22:23;7.73;;;7.03;;
6955;SDS011;50345;51.136;16.886;2023-06-14T08:24:49;11.13;;;8.70;;
6955;SDS011;50345;51.136;16.886;2023-06-14T08:27:16;11.70;;;8.60;;
6955;SDS011;50345;51.136;16.886;2023-06-14T08:29:42;10.20;;;8.10;;
6955;SDS011;50345;51.136;16.886;2023-06-14T08:32:08;10.23;;;7.93;;
6955;SDS011;50345;51.136;16.886;2023-06-14T08:34:35;9.17;;;8.37;;
6955;SDS011;50345;51.136;16.886;2023-06-14T08:37:01;10.17;;;8.47;;
6955;SDS011;50345;51.136;16.886;2023-06-14T08:39:27;8.50;;;7.80;;
6955;SDS011;50345;51.136;16.886;2023-06-14T08:41:53;9.20;;;8.40;;
6955;SDS011;50345;51.136;16.886;2023-06-14T08:44:20;8.57;;;7.87;;
6955;SDS011;50345;51.136;16.886;2023-06-14T08:46:47;9.10;;;8.17;;
6955;SDS011;50345;51.136;16.886;2023-06-14T08:49:13;10.10;;;9.13;;
6955;SDS011;50345;51.136;16.886;2023-06-14T08:51:42;8.80;;;8.00;;
6955;SDS011;50345;51.136;16.886;2023-06-14T08:54:10;8.70;;;8.00;;
6955;SDS011;50345;51.136;16.886;2023-06-14T08:56:37;9.20;;;8.30;;
6955;SDS011;50345;51.136;16.886;2023-06-14T08:59:06;8.33;;;7.60;;
6955;SDS011;50345;51.136;16.886;2023-06-14T09:01:34;8.93;;;8.13;;
6955;SDS011;50345;51.136;16.886;2023-06-14T09:04:00;9.40;;;8.50;;
6955;SDS011;50345;51.136;16.886;2023-06-14T09:06:27;9.40;;;8.50;;
6955;SDS011;50345;51.136;16.886;2023-06-14T09:08:54;10.47;;;9.27;;
6955;SDS011;50345;51.136;16.886;2023-06-14T09:11:22;9.30;;;8.50;;
6955;SDS011;50345;51.136;16.886;2023-06-14T09:13:48;8.90;;;8.07;;
6955;SDS011;50345;51.136;16.886;2023-06-14T09:16:15;8.70;;;8.00;;
6955;SDS011;50345;51.136;16.886;2023-06-14T09:18:44;7.73;;;7.10;;
6955;SDS011;50345;51.136;16.886;2023-06-14T09:21:12;9.37;;;7.63;;
6955;SDS011;50345;51.136;16.886;2023-06-14T09:23:40;8.70;;;7.30;;
6955;SDS011;50345;51.136;16.886;2023-06-14T09:26:17;7.80;;;7.10;;
6955;SDS011;50345;51.136;16.886;2023-06-14T09:28:48;6.90;;;6.40;;
6955;SDS011;50345;51.136;16.886;2023-06-14T09:31:18;8.17;;;6.60;;
6955;SDS011;50345;51.136;16.886;2023-06-14T09:33:45;8.43;;;7.67;;
6955;SDS011;50345;51.136;16.886;2023-06-14T09:36:15;9.60;;;8.80;;
6955;SDS011;50345;51.136;16.886;2023-06-14T09:38:43;7.37;;;6.70;;
6955;SDS011;50345;51.136;16.886;2023-06-14T09:41:17;8.00;;;6.67;;
6955;SDS011;50345;51.136;16.886;2023-06-14T09:43:43;7.57;;;6.97;;
6955;SDS011;50345;51.136;16.886;2023-06-14T09:46:10;7.57;;;7.07;;
6955;SDS011;50345;51.136;16.886;2023-06-14T09:48:36;8.77;;;6.40;;
6955;SDS011;50345;51.136;16.886;2023-06-14T09:51:07;7.60;;;6.90;;
6955;SDS011;50345;51.136;16.886;2023-06-14T09:53:33;7.87;;;7.00;;
6955;SDS011;50345;51.136;16.886;2023-06-14T09:56:01;6.90;;;6.30;;
6955;SDS011;50345;51.136;16.886;2023-06-14T09:58:27;8.93;;;7.70;;
6955;SDS011;50345;51.136;16.886;2023-06-14T10:00:54;6.83;;;6.20;;
6955;SDS011;50345;51.136;16.886;2023-06-14T10:03:24;7.57;;;6.23;;
6955;SDS011;50345;51.136;16.886;2023-06-14T10:05:51;6.30;;;5.70;;
6955;SDS011;50345;51.136;16.886;2023-06-14T10:08:22;5.93;;;5.53;;
6955;SDS011;50345;51.136;16.886;2023-06-14T10:10:50;6.87;;;5.80;;
6955;SDS011;50345;51.136;16.886;2023-06-14T10:13:17;6.63;;;4.90;;
6955;SDS011;50345;51.136;16.886;2023-06-14T10:18:14;9.30;;;6.40;;
6955;SDS011;50345;51.136;16.886;2023-06-14T10:20:55;8.73;;;6.43;;
6955;SDS011;50345;51.136;16.886;2023-06-14T10:23:24;6.53;;;5.80;;
6955;SDS011;50345;51.136;16.886;2023-06-14T10:25:56;12.73;;;6.50;;
6955;SDS011;50345;51.136;16.886;2023-06-14T10:28:22;6.13;;;5.63;;
6955;SDS011;50345;51.136;16.886;2023-06-14T10:33:55;7.23;;;6.23;;
6955;SDS011;50345;51.136;16.886;2023-06-14T10:38:57;5.83;;;5.33;;
6955;SDS011;50345;51.136;16.886;2023-06-14T10:41:24;5.70;;;5.20;;
6955;SDS011;50345;51.136;16.886;2023-06-14T10:43:52;5.70;;;5.20;;
6955;SDS011;50345;51.136;16.886;2023-06-14T10:46:18;5.23;;;4.83;;
6955;SDS011;50345;51.136;16.886;2023-06-14T10:48:48;6.27;;;4.50;;
6955;SDS011;50345;51.136;16.886;2023-06-14T10:51:17;7.20;;;4.60;;
6955;SDS011;50345;51.136;16.886;2023-06-14T10:53:46;5.90;;;5.27;;
6955;SDS011;50345;51.136;16.886;2023-06-14T10:56:22;5.83;;;5.20;;
6955;SDS011;50345;51.136;16.886;2023-06-14T10:58:52;4.80;;;4.40;;
6955;SDS011;50345;51.136;16.886;2023-06-14T11:01:28;5.87;;;4.90;;
6955;SDS011;50345;51.136;16.886;2023-06-14T11:04:00;7.70;;;5.13;;
6955;SDS011;50345;51.136;16.886;2023-06-14T11:06:36;6.10;;;4.70;;
6955;SDS011;50345;51.136;16.886;2023-06-14T11:09:20;7.33;;;5.00;;
6955;SDS011;50345;51.136;16.886;2023-06-14T11:11:55;5.93;;;5.33;;
6955;SDS011;50345;51.136;16.886;2023-06-14T11:14:22;5.47;;;5.07;;
6955;SDS011;50345;51.136;16.886;2023-06-14T11:16:51;5.10;;;4.60;;
6955;SDS011;50345;51.136;16.886;2023-06-14T11:19:17;6.40;;;5.90;;
6955;SDS011;50345;51.136;16.886;2023-06-14T11:21:46;5.57;;;5.07;;
6955;SDS011;50345;51.136;16.886;2023-06-14T11:24:13;6.17;;;5.57;;
6955;SDS011;50345;51.136;16.886;2023-06-14T11:26:39;6.00;;;5.27;;
6955;SDS011;50345;51.136;16.886;2023-06-14T11:29:06;5.87;;;5.37;;
6955;SDS011;50345;51.136;16.886;2023-06-14T11:31:32;5.70;;;5.10;;
6955;SDS011;50345;51.136;16.886;2023-06-14T11:33:58;8.00;;;5.30;;
6955;SDS011;50345;51.136;16.886;2023-06-14T11:36:31;6.37;;;5.77;;
6955;SDS011;50345;51.136;16.886;2023-06-14T11:39:00;6.00;;;5.50;;
6955;SDS011;50345;51.136;16.886;2023-06-14T11:41:32;5.63;;;5.13;;
6955;SDS011;50345;51.136;16.886;2023-06-14T11:43:59;6.30;;;4.33;;
6955;SDS011;50345;51.136;16.886;2023-06-14T11:46:26;5.10;;;4.23;;
6955;SDS011;50345;51.136;16.886;2023-06-14T11:48:52;4.87;;;4.37;;
6955;SDS011;50345;51.136;16.886;2023-06-14T11:51:18;4.03;;;3.70;;
6955;SDS011;50345;51.136;16.886;2023-06-14T11:53:45;5.93;;;4.17;;
6955;SDS011;50345;51.136;16.886;2023-06-14T11:56:12;6.10;;;4.30;;
6955;SDS011;50345;51.136;16.886;2023-06-14T11:58:38;6.50;;;4.50;;
6955;SDS011;50345;51.136;16.886;2023-06-14T12:01:05;4.60;;;3.70;;
6955;SDS011;50345;51.136;16.886;2023-06-14T12:03:31;4.10;;;3.80;;
6955;SDS011;50345;51.136;16.886;2023-06-14T12:06:07;4.33;;;3.80;;
6955;SDS011;50345;51.136;16.886;2023-06-14T12:08:36;6.53;;;3.97;;
6955;SDS011;50345;51.136;16.886;2023-06-14T12:11:12;4.43;;;4.03;;
6955;SDS011;50345;51.136;16.886;2023-06-14T12:13:39;4.17;;;3.87;;
6955;SDS011;50345;51.136;16.886;2023-06-14T12:16:06;7.50;;;4.80;;
6955;SDS011;50345;51.136;16.886;2023-06-14T12:18:34;4.43;;;4.13;;
6955;SDS011;50345;51.136;16.886;2023-06-14T12:21:00;4.73;;;4.33;;
6955;SDS011;50345;51.136;16.886;2023-06-14T12:23:27;6.53;;;5.53;;
6955;SDS011;50345;51.136;16.886;2023-06-14T12:26:04;5.80;;;4.80;;
6955;SDS011;50345;51.136;16.886;2023-06-14T12:28:31;6.13;;;4.30;;
6955;SDS011;50345;51.136;16.886;2023-06-14T12:30:57;4.43;;;4.03;;
6955;SDS011;50345;51.136;16.886;2023-06-14T12:33:24;5.47;;;5.07;;
6955;SDS011;50345;51.136;16.886;2023-06-14T12:35:50;5.07;;;4.57;;
6955;SDS011;50345;51.136;16.886;2023-06-14T12:38:17;4.30;;;3.90;;
6955;SDS011;50345;51.136;16.886;2023-06-14T12:40:43;8.00;;;4.30;;
6955;SDS011;50345;51.136;16.886;2023-06-14T12:43:09;4.50;;;4.10;;
6955;SDS011;50345;51.136;16.886;2023-06-14T12:45:35;4.57;;;4.17;;
6955;SDS011;50345;51.136;16.886;2023-06-14T12:48:01;3.93;;;3.53;;
6955;SDS011;50345;51.136;16.886;2023-06-14T12:50:27;3.93;;;3.63;;
6955;SDS011;50345;51.136;16.886;2023-06-14T12:52:53;4.63;;;3.90;;
6955;SDS011;50345;51.136;16.886;2023-06-14T12:55:20;6.83;;;4.40;;
6955;SDS011;50345;51.136;16.886;2023-06-14T12:57:46;4.20;;;3.90;;
6955;SDS011;50345;51.136;16.886;2023-06-14T13:00:14;4.97;;;4.40;;
6955;SDS011;50345;51.136;16.886;2023-06-14T13:02:42;5.40;;;5.00;;
6955;SDS011;50345;51.136;16.886;2023-06-14T13:05:08;4.10;;;3.50;;
6955;SDS011;50345;51.136;16.886;2023-06-14T13:07:34;4.33;;;3.93;;
6955;SDS011;50345;51.136;16.886;2023-06-14T13:10:00;7.63;;;4.90;;
6955;SDS011;50345;51.136;16.886;2023-06-14T13:12:26;4.57;;;4.10;;
6955;SDS011;50345;51.136;16.886;2023-06-14T13:14:52;5.83;;;4.30;;
6955;SDS011;50345;51.136;16.886;2023-06-14T13:17:18;4.67;;;4.27;;
6955;SDS011;50345;51.136;16.886;2023-06-14T13:19:45;5.20;;;4.70;;
6955;SDS011;50345;51.136;16.886;2023-06-14T13:22:11;8.23;;;6.20;;
6955;SDS011;50345;51.136;16.886;2023-06-14T13:24:37;5.80;;;4.80;;
6955;SDS011;50345;51.136;16.886;2023-06-14T13:27:03;5.13;;;4.60;;
6955;SDS011;50345;51.136;16.886;2023-06-14T13:29:30;6.00;;;5.13;;
6955;SDS011;50345;51.136;16.886;2023-06-14T13:31:57;7.60;;;4.77;;
6955;SDS011;50345;51.136;16.886;2023-06-14T13:34:24;15.77;;;5.27;;
6955;SDS011;50345;51.136;16.886;2023-06-14T13:36:50;6.00;;;4.70;;
6955;SDS011;50345;51.136;16.886;2023-06-14T13:39:16;11.67;;;5.47;;
6955;SDS011;50345;51.136;16.886;2023-06-14T13:41:42;8.03;;;5.23;;
6955;SDS011;50345;51.136;16.886;2023-06-14T13:44:08;6.50;;;4.97;;
6955;SDS011;50345;51.136;16.886;2023-06-14T13:46:38;8.57;;;5.10;;
6955;SDS011;50345;51.136;16.886;2023-06-14T13:49:05;9.40;;;5.00;;
6955;SDS011;50345;51.136;16.886;2023-06-14T13:51:31;8.17;;;4.83;;
6955;SDS011;50345;51.136;16.886;2023-06-14T13:53:58;5.93;;;5.20;;
6955;SDS011;50345;51.136;16.886;2023-06-14T13:56:24;4.90;;;4.40;;
6955;SDS011;50345;51.136;16.886;2023-06-14T13:58:50;7.43;;;5.03;;
6955;SDS011;50345;51.136;16.886;2023-06-14T14:01:20;8.33;;;5.30;;
6955;SDS011;50345;51.136;16.886;2023-06-14T14:03:46;6.33;;;4.60;;
6955;SDS011;50345;51.136;16.886;2023-06-14T14:06:12;6.10;;;5.03;;
6955;SDS011;50345;51.136;16.886;2023-06-14T14:08:38;5.20;;;4.70;;
6955;SDS011;50345;51.136;16.886;2023-06-14T14:11:05;6.93;;;4.10;;
6955;SDS011;50345;51.136;16.886;2023-06-14T14:13:32;12.33;;;4.50;;
6955;SDS011;50345;51.136;16.886;2023-06-14T14:15:58;5.30;;;4.90;;
6955;SDS011;50345;51.136;16.886;2023-06-14T14:18:25;9.10;;;5.33;;
6955;SDS011;50345;51.136;16.886;2023-06-14T14:20:51;7.53;;;4.60;;
6955;SDS011;50345;51.136;16.886;2023-06-14T14:23:17;5.67;;;5.10;;
6955;SDS011;50345;51.136;16.886;2023-06-14T14:25:45;9.60;;;4.37;;
6955;SDS011;50345;51.136;16.886;2023-06-14T14:28:10;5.90;;;4.90;;
6955;SDS011;50345;51.136;16.886;2023-06-14T14:30:36;6.27;;;5.60;;
6955;SDS011;50345;51.136;16.886;2023-06-14T14:33:04;14.43;;;5.50;;
6955;SDS011;50345;51.136;16.886;2023-06-14T14:35:31;5.23;;;4.80;;
6955;SDS011;50345;51.136;16.886;2023-06-14T14:37:57;8.60;;;4.90;;
6955;SDS011;50345;51.136;16.886;2023-06-14T14:40:22;12.97;;;5.63;;
6955;SDS011;50345;51.136;16.886;2023-06-14T14:42:48;4.73;;;4.40;;
6955;SDS011;50345;51.136;16.886;2023-06-14T14:45:14;4.97;;;4.60;;
6955;SDS011;50345;51.136;16.886;2023-06-14T14:47:40;4.97;;;4.20;;
6955;SDS011;50345;51.136;16.886;2023-06-14T14:50:05;8.27;;;5.60;;
6955;SDS011;50345;51.136;16.886;2023-06-14T14:52:34;5.27;;;4.90;;
6955;SDS011;50345;51.136;16.886;2023-06-14T14:55:00;6.50;;;5.00;;
6955;SDS011;50345;51.136;16.886;2023-06-14T14:57:26;5.47;;;4.97;;